F/V Fleur Des Vagues — FPEJ — position and weather

sailwx.info

Track history (hours):
 
Tides and Currents Weather Stations Pressure Air Temp Water Temp Dewpoint Dewpoint Depression Visibility Wind Speed Wind Dir Waves Ship Positions

F/V Fleur Des Vagues

Last reported at 2016-Sep-14 17:34 UTC. Time now 2016-Sep-30 15:13 UTC.
Position N 47°36' W 003°18'.
Warning: this ship's position is 15 days out of date.

Length 16 m.

Type: Fishing. MMSI: 227893000.

Date/timePositionNaut miles runAvg speedWind from/ knotsBaromVisibWave heightAir tempDewpointWater temp
2016-Sep-14 17:34N 47°36' W 003°18'9 9.3
2016-Sep-14 16:33N 47°28' W 003°10'26 8.6
2016-Sep-14 13:33N 47°08' W 002°47'9 8.1
2016-Sep-14 12:30N 47°01' W 002°38'45 8.5
2016-Sep-14 07:08N 46°29' W 001°52'3 6.0
2016-Sep-14 06:33N 46°29' W 001°47'7 0.3
2016-Sep-13 09:33N 46°23' W 001°52'4 2.1
2016-Sep-13 07:34N 46°20' W 001°56'2 1.9
2016-Sep-13 06:33N 46°21' W 001°54'1 0.6
2016-Sep-13 04:34N 46°20' W 001°55'1 0.3
2016-Sep-13 02:33N 46°20' W 001°54'6 1.9
2016-Sep-12 23:34N 46°25' W 001°50'5 2.6
2016-Sep-12 21:33N 46°30' W 001°47'0 0.0
2016-Sep-12 19:34N 46°30' W 001°47'0 0.0
2016-Sep-12 17:34N 46°30' W 001°47'0 0.0
2016-Sep-12 14:33N 46°30' W 001°47'0 0.0
2016-Sep-12 13:33N 46°30' W 001°47'5 4.8
2016-Sep-12 12:33N 46°26' W 001°50'6 5.5
2016-Sep-12 11:33N 46°21' W 001°54'1 0.6
2016-Sep-12 10:33N 46°21' W 001°53'1 0.2
2016-Sep-12 07:32N 46°21' W 001°54'2 2.2
2016-Sep-12 06:34N 46°20' W 001°56'2 0.7
2016-Sep-12 03:34N 46°21' W 001°54'0 0.1
2016-Sep-12 01:33N 46°21' W 001°54'10 5.0
2016-Sep-11 23:34N 46°30' W 001°47'0 0.0
2016-Sep-11 22:33N 46°30' W 001°47'0 0.0
2016-Sep-11 21:33N 46°30' W 001°47'0 0.0
2016-Sep-11 20:33N 46°30' W 001°47'0 0.0
2016-Sep-11 19:33N 46°30' W 001°47'0 0.0
2016-Sep-11 18:33N 46°30' W 001°47'0 0.0
2016-Sep-11 17:34N 46°30' W 001°47'0 0.0
2016-Sep-11 16:33N 46°30' W 001°47'0 0.0
2016-Sep-11 15:34N 46°30' W 001°47'0 0.0
2016-Sep-11 14:33N 46°30' W 001°47'0 0.0
2016-Sep-11 13:34N 46°30' W 001°47'3 3.0
2016-Sep-11 12:34N 46°27' W 001°49'9 8.4
2016-Sep-11 11:32N 46°20' W 001°56'2 1.8
2016-Sep-11 10:34N 46°21' W 001°54'2 1.0
2016-Sep-11 08:33N 46°20' W 001°56'1 1.4
2016-Sep-11 07:33N 46°20' W 001°54'1 0.2
2016-Sep-11 03:31N 46°20' W 001°55'2 1.9
2016-Sep-11 02:33N 46°20' W 001°58'2 2.1
2016-Sep-11 01:34N 46°21' W 001°55'6 6.0
2016-Sep-11 00:33N 46°25' W 001°50'5 4.8
2016-Sep-10 23:33N 46°30' W 001°47'0 0.0
2016-Sep-10 22:33N 46°30' W 001°47'0 0.0
2016-Sep-10 21:34N 46°30' W 001°47'0 0.0
2016-Sep-10 20:34N 46°30' W 001°47'0 0.0
2016-Sep-10 19:33N 46°30' W 001°47'0 0.0
2016-Sep-10 18:34N 46°30' W 001°47'0 0.0
2016-Sep-10 17:33N 46°30' W 001°47'0 0.0
2016-Sep-10 16:34N 46°30' W 001°47'0 0.0
2016-Sep-10 15:34N 46°30' W 001°47'0 0.0
2016-Sep-10 14:34N 46°30' W 001°47'0 0.0
2016-Sep-10 13:33N 46°30' W 001°47'0 0.3
2016-Sep-10 12:33N 46°30' W 001°48'8 7.6
2016-Sep-10 11:33N 46°23' W 001°53'3 2.7
2016-Sep-10 10:33N 46°21' W 001°55'2 1.9
2016-Sep-10 09:33N 46°20' W 001°57'1 0.9
2016-Sep-10 08:34N 46°20' W 001°58'1 1.5
2016-Sep-10 07:33N 46°21' W 001°59'0 0.2
2016-Sep-10 06:33N 46°21' W 001°59'1 0.6
2016-Sep-10 05:32N 46°21' W 001°58'2 1.7
2016-Sep-10 04:34N 46°22' W 001°58'2 2.2
2016-Sep-10 03:33N 46°20' W 001°57'2 1.5
2016-Sep-10 02:30N 46°22' W 001°58'1 0.6
2016-Sep-10 01:33N 46°21' W 001°58'7 6.9
2016-Sep-10 00:33N 46°26' W 001°51'5 4.7
2016-Sep-09 23:33N 46°30' W 001°47'0 0.0
2016-Sep-09 22:33N 46°30' W 001°47'0 0.0
2016-Sep-09 21:34N 46°30' W 001°47'0 0.0
2016-Sep-09 20:33N 46°30' W 001°47'0 0.0
2016-Sep-09 19:33N 46°30' W 001°47'0 0.0
2016-Sep-09 18:34N 46°30' W 001°47'0 0.0
2016-Sep-09 17:34N 46°30' W 001°47'0 0.0
2016-Sep-09 16:34N 46°30' W 001°47'0 0.0
2016-Sep-09 15:33N 46°30' W 001°47'0 0.0
2016-Sep-09 14:34N 46°30' W 001°47'0 0.0
2016-Sep-09 13:34N 46°30' W 001°47'0 0.0
2016-Sep-09 12:34N 46°30' W 001°47'3 2.7
2016-Sep-09 11:34N 46°27' W 001°49'9 8.6
2016-Sep-09 10:33N 46°21' W 001°57'2 1.7
2016-Sep-09 09:33N 46°22' W 001°59'3 3.1
2016-Sep-09 08:34N 46°19' W 001°58'1 1.4
2016-Sep-09 07:31N 46°18' W 001°59'1 1.1
2016-Sep-09 06:31N 46°17' W 001°58'3 1.7
2016-Sep-09 04:33N 46°21' W 001°60'1 0.5
2016-Sep-09 03:33N 46°21' W 001°59'0 0.4
2016-Sep-09 02:34N 46°20' W 001°58'1 1.4
2016-Sep-09 01:33N 46°22' W 001°59'7 7.4
2016-Sep-09 00:33N 46°26' W 001°51'4 4.3
2016-Sep-08 23:34N 46°30' W 001°47'0 0.0
2016-Sep-08 22:33N 46°30' W 001°47'0 0.0
2016-Sep-08 21:33N 46°30' W 001°47'0 0.0
2016-Sep-08 20:34N 46°30' W 001°47'0 0.0
2016-Sep-08 19:34N 46°30' W 001°47'0 0.0
2016-Sep-08 18:33N 46°30' W 001°47'0 0.0
2016-Sep-08 17:34N 46°30' W 001°47'0 0.0
2016-Sep-08 16:34N 46°30' W 001°47'0 0.0
2016-Sep-08 15:34N 46°30' W 001°47'0 0.0
2016-Sep-08 14:33N 46°30' W 001°47'0 0.0
2016-Sep-08 13:33N 46°30' W 001°47'6 5.6
2016-Sep-08 12:34N 46°25' W 001°51'8 7.8
2016-Sep-08 11:34N 46°18' W 001°57'3 2.3
2016-Sep-08 10:24N 46°20' W 002°00'2 2.0
2016-Sep-08 09:33N 46°21' W 001°58'2 1.5
2016-Sep-08 08:33N 46°21' W 002°00'1 0.7
2016-Sep-08 07:34N 46°22' W 002°01'1 1.1
2016-Sep-08 06:32N 46°21' W 001°60'1 0.6
2016-Sep-08 05:34N 46°22' W 002°00'0 0.2
2016-Sep-08 04:33N 46°22' W 001°60'0 0.2
2016-Sep-08 03:33N 46°22' W 001°60'0 0.3
2016-Sep-08 02:32N 46°22' W 001°60'1 0.8
2016-Sep-08 01:33N 46°22' W 001°59'7 6.7
2016-Sep-08 00:33N 46°26' W 001°51'5 5.0
2016-Sep-07 23:34N 46°30' W 001°47'0 0.0
2016-Sep-07 22:33N 46°30' W 001°47'0 0.0
2016-Sep-07 21:34N 46°30' W 001°47'0 0.0
2016-Sep-07 20:34N 46°30' W 001°47'0 0.0
2016-Sep-07 19:34N 46°30' W 001°47'0 0.0
2016-Sep-07 18:34N 46°30' W 001°47'0 0.0
2016-Sep-07 17:34N 46°30' W 001°47'0 0.0
2016-Sep-07 16:34N 46°30' W 001°47'0 0.0
2016-Sep-07 15:33N 46°30' W 001°47'0 0.0
2016-Sep-07 14:33N 46°30' W 001°47'0 0.0
2016-Sep-07 13:33N 46°30' W 001°47'0 0.0
2016-Sep-07 12:33N 46°30' W 001°47'7 6.6
2016-Sep-07 11:34N 46°25' W 001°53'6 6.2
2016-Sep-07 10:33N 46°22' W 002°01'1 1.0
2016-Sep-07 09:33N 46°22' W 001°60'4 4.4
2016-Sep-07 08:34N 46°18' W 001°57'3 3.2
2016-Sep-07 07:33N 46°15' W 001°55'1 0.7
2016-Sep-07 06:32N 46°16' W 001°55'1 0.5
2016-Sep-07 04:33N 46°16' W 001°54'2 1.8
2016-Sep-07 03:33N 46°17' W 001°55'2 1.9
2016-Sep-07 02:33N 46°16' W 001°54'1 1.0
2016-Sep-07 01:33N 46°17' W 001°54'7 7.0
2016-Sep-07 00:34N 46°23' W 001°51'7 7.3
2016-Sep-06 23:34N 46°30' W 001°47'0 0.0
2016-Sep-06 22:34N 46°30' W 001°47'0 0.0
2016-Sep-06 21:34N 46°30' W 001°47'0 0.0
2016-Sep-06 20:33N 46°30' W 001°47'0 0.0
2016-Sep-06 19:33N 46°30' W 001°47'0 0.0
2016-Sep-06 18:33N 46°30' W 001°47'0 0.0
2016-Sep-06 17:33N 46°30' W 001°47'0 0.0
2016-Sep-06 16:33N 46°30' W 001°47'0 0.0
2016-Sep-06 15:34N 46°30' W 001°47'0 0.0
2016-Sep-06 14:33N 46°30' W 001°47'0 0.0
2016-Sep-06 13:33N 46°30' W 001°47'0 0.0
2016-Sep-06 12:33N 46°30' W 001°47'0 0.5
2016-Sep-06 11:33N 46°30' W 001°48'8 8.1
2016-Sep-06 10:34N 46°22' W 001°52'7 6.7
2016-Sep-06 09:34N 46°16' W 001°54'1 1.3
2016-Sep-06 08:33N 46°16' W 001°56'5 4.9
2016-Sep-06 07:34N 46°20' W 002°00'1 1.1
2016-Sep-06 06:33N 46°21' W 001°60'2 0.9
2016-Sep-06 04:33N 46°23' W 001°59'1 1.5
2016-Sep-06 03:33N 46°21' W 001°59'1 1.3
2016-Sep-06 02:33N 46°23' W 001°59'1 0.5
2016-Sep-06 01:33N 46°22' W 001°59'6 6.4
2016-Sep-06 00:33N 46°26' W 001°51'5 4.7
2016-Sep-05 23:34N 46°30' W 001°47'0 0.0
2016-Sep-05 22:33N 46°30' W 001°47'0 0.0
2016-Sep-05 21:34N 46°30' W 001°47'0 0.0
2016-Sep-05 20:34N 46°30' W 001°47'0 0.0
2016-Sep-05 19:34N 46°30' W 001°47'0 0.0
2016-Sep-05 18:34N 46°30' W 001°47'0 0.0
2016-Sep-05 17:34N 46°30' W 001°47'0 0.0
2016-Sep-05 16:34N 46°30' W 001°47'0 0.0
2016-Sep-05 15:33N 46°30' W 001°47'0 0.0
2016-Sep-05 14:33N 46°30' W 001°47'0 0.0
2016-Sep-05 13:33N 46°30' W 001°47'0 0.0
2016-Sep-05 12:33N 46°30' W 001°47'3 3.1
2016-Sep-05 11:34N 46°27' W 001°50'8 8.2
2016-Sep-05 10:33N 46°23' W 001°60'3 2.7
2016-Sep-05 09:34N 46°20' W 001°60'1 1.0
2016-Sep-05 08:33N 46°21' W 002°01'1 1.0
2016-Sep-05 07:33N 46°22' W 002°01'1 1.2
2016-Sep-05 06:24N 46°21' W 001°60'1 0.8
2016-Sep-05 04:33N 46°23' W 001°60'2 1.6
2016-Sep-05 03:34N 46°21' W 001°59'2 2.0
2016-Sep-05 02:33N 46°23' W 001°60'2 1.7
2016-Sep-05 01:32N 46°22' W 001°58'8 7.8
2016-Sep-05 00:34N 46°27' W 001°50'4 3.6
2016-Sep-04 23:33N 46°30' W 001°47'0 0.0
2016-Sep-04 22:33N 46°30' W 001°47'0 0.0
2016-Sep-04 21:33N 46°30' W 001°47'0 0.0
2016-Sep-04 20:33N 46°30' W 001°47'0 0.0
2016-Sep-04 19:34N 46°30' W 001°47'0 0.0
2016-Sep-04 18:34N 46°30' W 001°47'0 0.0
2016-Sep-04 17:34N 46°30' W 001°47'  
Track history (hours):
 
Tides and Currents Weather Stations Pressure Air Temp Water Temp Dewpoint Dewpoint Depression Visibility Wind Speed Wind Dir Waves Ship Positions

F/V Fleur Des Vagues

Last reported at 2016-Sep-14 17:34 UTC. Time now 2016-Sep-30 15:13 UTC.
Position N 47°36' W 003°18'.
Warning: this ship's position is 15 days out of date.

Length 16 m.

Type: Fishing. MMSI: 227893000.

Date/timePositionNaut miles runAvg speedWind from/ knotsBaromVisibWave heightAir tempDewpointWater temp
2016-Sep-14 17:34N 47°36' W 003°18'9 9.3
2016-Sep-14 16:33N 47°28' W 003°10'26 8.6
2016-Sep-14 13:33N 47°08' W 002°47'9 8.1
2016-Sep-14 12:30N 47°01' W 002°38'45 8.5
2016-Sep-14 07:08N 46°29' W 001°52'3 6.0
2016-Sep-14 06:33N 46°29' W 001°47'7 0.3
2016-Sep-13 09:33N 46°23' W 001°52'4 2.1
2016-Sep-13 07:34N 46°20' W 001°56'2 1.9
2016-Sep-13 06:33N 46°21' W 001°54'1 0.6
2016-Sep-13 04:34N 46°20' W 001°55'1 0.3
2016-Sep-13 02:33N 46°20' W 001°54'6 1.9
2016-Sep-12 23:34N 46°25' W 001°50'5 2.6
2016-Sep-12 21:33N 46°30' W 001°47'0 0.0
2016-Sep-12 19:34N 46°30' W 001°47'0 0.0
2016-Sep-12 17:34N 46°30' W 001°47'0 0.0
2016-Sep-12 14:33N 46°30' W 001°47'0 0.0
2016-Sep-12 13:33N 46°30' W 001°47'5 4.8
2016-Sep-12 12:33N 46°26' W 001°50'6 5.5
2016-Sep-12 11:33N 46°21' W 001°54'1 0.6
2016-Sep-12 10:33N 46°21' W 001°53'1 0.2
2016-Sep-12 07:32N 46°21' W 001°54'2 2.2
2016-Sep-12 06:34N 46°20' W 001°56'2 0.7
2016-Sep-12 03:34N 46°21' W 001°54'0 0.1
2016-Sep-12 01:33N 46°21' W 001°54'10 5.0
2016-Sep-11 23:34N 46°30' W 001°47'0 0.0
2016-Sep-11 22:33N 46°30' W 001°47'0 0.0
2016-Sep-11 21:33N 46°30' W 001°47'0 0.0
2016-Sep-11 20:33N 46°30' W 001°47'0 0.0
2016-Sep-11 19:33N 46°30' W 001°47'0 0.0
2016-Sep-11 18:33N 46°30' W 001°47'0 0.0
2016-Sep-11 17:34N 46°30' W 001°47'0 0.0
2016-Sep-11 16:33N 46°30' W 001°47'0 0.0
2016-Sep-11 15:34N 46°30' W 001°47'0 0.0
2016-Sep-11 14:33N 46°30' W 001°47'0 0.0
2016-Sep-11 13:34N 46°30' W 001°47'3 3.0
2016-Sep-11 12:34N 46°27' W 001°49'9 8.4
2016-Sep-11 11:32N 46°20' W 001°56'2 1.8
2016-Sep-11 10:34N 46°21' W 001°54'2 1.0
2016-Sep-11 08:33N 46°20' W 001°56'1 1.4
2016-Sep-11 07:33N 46°20' W 001°54'1 0.2
2016-Sep-11 03:31N 46°20' W 001°55'2 1.9
2016-Sep-11 02:33N 46°20' W 001°58'2 2.1
2016-Sep-11 01:34N 46°21' W 001°55'6 6.0
2016-Sep-11 00:33N 46°25' W 001°50'5 4.8
2016-Sep-10 23:33N 46°30' W 001°47'0 0.0
2016-Sep-10 22:33N 46°30' W 001°47'0 0.0
2016-Sep-10 21:34N 46°30' W 001°47'0 0.0
2016-Sep-10 20:34N 46°30' W 001°47'0 0.0
2016-Sep-10 19:33N 46°30' W 001°47'0 0.0
2016-Sep-10 18:34N 46°30' W 001°47'0 0.0
2016-Sep-10 17:33N 46°30' W 001°47'0 0.0
2016-Sep-10 16:34N 46°30' W 001°47'0 0.0
2016-Sep-10 15:34N 46°30' W 001°47'0 0.0
2016-Sep-10 14:34N 46°30' W 001°47'0 0.0
2016-Sep-10 13:33N 46°30' W 001°47'0 0.3
2016-Sep-10 12:33N 46°30' W 001°48'8 7.6
2016-Sep-10 11:33N 46°23' W 001°53'3 2.7
2016-Sep-10 10:33N 46°21' W 001°55'2 1.9
2016-Sep-10 09:33N 46°20' W 001°57'1 0.9
2016-Sep-10 08:34N 46°20' W 001°58'1 1.5
2016-Sep-10 07:33N 46°21' W 001°59'0 0.2
2016-Sep-10 06:33N 46°21' W 001°59'1 0.6
2016-Sep-10 05:32N 46°21' W 001°58'2 1.7
2016-Sep-10 04:34N 46°22' W 001°58'2 2.2
2016-Sep-10 03:33N 46°20' W 001°57'2 1.5
2016-Sep-10 02:30N 46°22' W 001°58'1 0.6
2016-Sep-10 01:33N 46°21' W 001°58'7 6.9
2016-Sep-10 00:33N 46°26' W 001°51'5 4.7
2016-Sep-09 23:33N 46°30' W 001°47'0 0.0
2016-Sep-09 22:33N 46°30' W 001°47'0 0.0
2016-Sep-09 21:34N 46°30' W 001°47'0 0.0
2016-Sep-09 20:33N 46°30' W 001°47'0 0.0
2016-Sep-09 19:33N 46°30' W 001°47'0 0.0
2016-Sep-09 18:34N 46°30' W 001°47'0 0.0
2016-Sep-09 17:34N 46°30' W 001°47'0 0.0
2016-Sep-09 16:34N 46°30' W 001°47'0 0.0
2016-Sep-09 15:33N 46°30' W 001°47'0 0.0
2016-Sep-09 14:34N 46°30' W 001°47'0 0.0
2016-Sep-09 13:34N 46°30' W 001°47'0 0.0
2016-Sep-09 12:34N 46°30' W 001°47'3 2.7
2016-Sep-09 11:34N 46°27' W 001°49'9 8.6
2016-Sep-09 10:33N 46°21' W 001°57'2 1.7
2016-Sep-09 09:33N 46°22' W 001°59'3 3.1
2016-Sep-09 08:34N 46°19' W 001°58'1 1.4
2016-Sep-09 07:31N 46°18' W 001°59'1 1.1
2016-Sep-09 06:31N 46°17' W 001°58'3 1.7
2016-Sep-09 04:33N 46°21' W 001°60'1 0.5
2016-Sep-09 03:33N 46°21' W 001°59'0 0.4
2016-Sep-09 02:34N 46°20' W 001°58'1 1.4
2016-Sep-09 01:33N 46°22' W 001°59'7 7.4
2016-Sep-09 00:33N 46°26' W 001°51'4 4.3
2016-Sep-08 23:34N 46°30' W 001°47'0 0.0
2016-Sep-08 22:33N 46°30' W 001°47'0 0.0
2016-Sep-08 21:33N 46°30' W 001°47'0 0.0
2016-Sep-08 20:34N 46°30' W 001°47'0 0.0
2016-Sep-08 19:34N 46°30' W 001°47'0 0.0
2016-Sep-08 18:33N 46°30' W 001°47'0 0.0
2016-Sep-08 17:34N 46°30' W 001°47'0 0.0
2016-Sep-08 16:34N 46°30' W 001°47'0 0.0
2016-Sep-08 15:34N 46°30' W 001°47'0 0.0
2016-Sep-08 14:33N 46°30' W 001°47'0 0.0
2016-Sep-08 13:33N 46°30' W 001°47'6 5.6
2016-Sep-08 12:34N 46°25' W 001°51'8 7.8
2016-Sep-08 11:34N 46°18' W 001°57'3 2.3
2016-Sep-08 10:24N 46°20' W 002°00'2 2.0
2016-Sep-08 09:33N 46°21' W 001°58'2 1.5
2016-Sep-08 08:33N 46°21' W 002°00'1 0.7
2016-Sep-08 07:34N 46°22' W 002°01'1 1.1
2016-Sep-08 06:32N 46°21' W 001°60'1 0.6
2016-Sep-08 05:34N 46°22' W 002°00'0 0.2
2016-Sep-08 04:33N 46°22' W 001°60'0 0.2
2016-Sep-08 03:33N 46°22' W 001°60'0 0.3
2016-Sep-08 02:32N 46°22' W 001°60'1 0.8
2016-Sep-08 01:33N 46°22' W 001°59'7 6.7
2016-Sep-08 00:33N 46°26' W 001°51'5 5.0
2016-Sep-07 23:34N 46°30' W 001°47'0 0.0
2016-Sep-07 22:33N 46°30' W 001°47'0 0.0
2016-Sep-07 21:34N 46°30' W 001°47'0 0.0
2016-Sep-07 20:34N 46°30' W 001°47'0 0.0
2016-Sep-07 19:34N 46°30' W 001°47'0 0.0
2016-Sep-07 18:34N 46°30' W 001°47'0 0.0
2016-Sep-07 17:34N 46°30' W 001°47'0 0.0
2016-Sep-07 16:34N 46°30' W 001°47'0 0.0
2016-Sep-07 15:33N 46°30' W 001°47'0 0.0
2016-Sep-07 14:33N 46°30' W 001°47'0 0.0
2016-Sep-07 13:33N 46°30' W 001°47'0 0.0
2016-Sep-07 12:33N 46°30' W 001°47'7 6.6
2016-Sep-07 11:34N 46°25' W 001°53'6 6.2
2016-Sep-07 10:33N 46°22' W 002°01'1 1.0
2016-Sep-07 09:33N 46°22' W 001°60'4 4.4
2016-Sep-07 08:34N 46°18' W 001°57'3 3.2
2016-Sep-07 07:33N 46°15' W 001°55'1 0.7
2016-Sep-07 06:32N 46°16' W 001°55'1 0.5
2016-Sep-07 04:33N 46°16' W 001°54'2 1.8
2016-Sep-07 03:33N 46°17' W 001°55'2 1.9
2016-Sep-07 02:33N 46°16' W 001°54'1 1.0
2016-Sep-07 01:33N 46°17' W 001°54'7 7.0
2016-Sep-07 00:34N 46°23' W 001°51'7 7.3
2016-Sep-06 23:34N 46°30' W 001°47'0 0.0
2016-Sep-06 22:34N 46°30' W 001°47'0 0.0
2016-Sep-06 21:34N 46°30' W 001°47'0 0.0
2016-Sep-06 20:33N 46°30' W 001°47'0 0.0
2016-Sep-06 19:33N 46°30' W 001°47'0 0.0
2016-Sep-06 18:33N 46°30' W 001°47'0 0.0
2016-Sep-06 17:33N 46°30' W 001°47'0 0.0
2016-Sep-06 16:33N 46°30' W 001°47'0 0.0
2016-Sep-06 15:34N 46°30' W 001°47'0 0.0
2016-Sep-06 14:33N 46°30' W 001°47'0 0.0
2016-Sep-06 13:33N 46°30' W 001°47'0 0.0
2016-Sep-06 12:33N 46°30' W 001°47'0 0.5
2016-Sep-06 11:33N 46°30' W 001°48'8 8.1
2016-Sep-06 10:34N 46°22' W 001°52'7 6.7
2016-Sep-06 09:34N 46°16' W 001°54'1 1.3
2016-Sep-06 08:33N 46°16' W 001°56'5 4.9
2016-Sep-06 07:34N 46°20' W 002°00'1 1.1
2016-Sep-06 06:33N 46°21' W 001°60'2 0.9
2016-Sep-06 04:33N 46°23' W 001°59'1 1.5
2016-Sep-06 03:33N 46°21' W 001°59'1 1.3
2016-Sep-06 02:33N 46°23' W 001°59'1 0.5
2016-Sep-06 01:33N 46°22' W 001°59'6 6.4
2016-Sep-06 00:33N 46°26' W 001°51'5 4.7
2016-Sep-05 23:34N 46°30' W 001°47'0 0.0
2016-Sep-05 22:33N 46°30' W 001°47'0 0.0
2016-Sep-05 21:34N 46°30' W 001°47'0 0.0
2016-Sep-05 20:34N 46°30' W 001°47'0 0.0
2016-Sep-05 19:34N 46°30' W 001°47'0 0.0
2016-Sep-05 18:34N 46°30' W 001°47'0 0.0
2016-Sep-05 17:34N 46°30' W 001°47'0 0.0
2016-Sep-05 16:34N 46°30' W 001°47'0 0.0
2016-Sep-05 15:33N 46°30' W 001°47'0 0.0
2016-Sep-05 14:33N 46°30' W 001°47'0 0.0
2016-Sep-05 13:33N 46°30' W 001°47'0 0.0
2016-Sep-05 12:33N 46°30' W 001°47'3 3.1
2016-Sep-05 11:34N 46°27' W 001°50'8 8.2
2016-Sep-05 10:33N 46°23' W 001°60'3 2.7
2016-Sep-05 09:34N 46°20' W 001°60'1 1.0
2016-Sep-05 08:33N 46°21' W 002°01'1 1.0
2016-Sep-05 07:33N 46°22' W 002°01'1 1.2
2016-Sep-05 06:24N 46°21' W 001°60'1 0.8
2016-Sep-05 04:33N 46°23' W 001°60'2 1.6
2016-Sep-05 03:34N 46°21' W 001°59'2 2.0
2016-Sep-05 02:33N 46°23' W 001°60'2 1.7
2016-Sep-05 01:32N 46°22' W 001°58'8 7.8
2016-Sep-05 00:34N 46°27' W 001°50'4 3.6
2016-Sep-04 23:33N 46°30' W 001°47'0 0.0
2016-Sep-04 22:33N 46°30' W 001°47'0 0.0
2016-Sep-04 21:33N 46°30' W 001°47'0 0.0
2016-Sep-04 20:33N 46°30' W 001°47'0 0.0
2016-Sep-04 19:34N 46°30' W 001°47'0 0.0
2016-Sep-04 18:34N 46°30' W 001°47'0 0.0
2016-Sep-04 17:34N 46°30' W 001°47'  

Dump ship's entire track history